Lacey Spring, VA (22833)

8:15 PM EST on March 04, 2015 (GMT -0500)
Lacey Springs MC | Change Station
CLOSE
Current Station
Personal Weather Station
Location: Harrisonburg, VA
Elevation: 1237 ft
Nearby Weather Stations
Active Advisory: Winter Storm Warning

Elev 1237 ft 38.52 °N, 78.74 °W | Updated 39 minutes ago

Rain
Rain
45.7 °F
Feels Like 46 °F
N
0.0
Wind Variable Wind from SSE
Gusts 0.0 mph

Today
High -- | Low -- °F
--% Chance of Precip.
Yesterday
High -- | Low -- °F
Precip. -- in
6:43 AM 6:10 PM
Full, 100% visible
Pressure 29.91 in
Visibility 1.2 miles
Clouds Mostly Cloudy 1100 ft
Mostly Cloudy 3400 ft
Overcast 4000 ft
Windchill 46 °F
Dew Point 45 °F
Humidity 97%
Rainfall 0.09 in
Snow Depth Not available.
UV 0 out of 12
Pollen .70 out of 12
Air Quality Not available.
Flu Activity Not available.
METAR KLUA 050055Z AUTO 00000KT 1 1/4SM +RA BKN011 BKN034 OVC040 09/09 A2991 RMK AO2 P0006

More Conditions Fewer Conditions

Pressure 29.91 in
Visibility 1.2 miles
Clouds Mostly Cloudy 1100 ft
Mostly Cloudy 3400 ft
Overcast 4000 ft
Windchill 46 °F
Dew Point 45 °F
Humidity 97%
Rainfall 0.09 in
Snow Depth Not available.
UV 0 out of 12
Pollen .70 out of 12
Air Quality Not available.
Flu Activity Not available.
METAR KLUA 050055Z AUTO 00000KT 1 1/4SM +RA BKN011 BKN034 OVC040 09/09 A2991 RMK AO2 P0006

More Conditions Fewer Conditions

10-Day Weather Forecast

Almanac

Astronomy

Mar. 04, 2015 Rise Set
Actual Time
Civil Twilight
Nautical Twilight
Astronomical Twilight
Moon
Length of Visible Light
Length of Day
Tomorrow will be .
, % of the Moon is Illuminated

Today's Extremes

State Highs State Lows

Community

WunderPhotos

Upload Photos

1,802,617 photos uploaded!

WunderBlogs® & News

Nearby

Air Quality

  Air Quality AQ Index Pollutant
Not available.

Snow Depth

Station Depth Elevation

Earthquake Activity

City Distance Mag. Time & Date
Minimum magnitude displayed is 2.5.

Coastal Water Temperatures

Place Temperature

Nearby Weather Stations

Winter Storm Warning
Statement as of 1:31 PM EST on March 04, 2015

... Winter Storm Warning remains in effect from 10 PM this evening
to 7 PM EST Thursday...

* precipitation types... wintry mix late this evening... then
snow... heavy at times.

* Accumulations... snow accumulation of 6 to 10 inches.

* Timing... rain changes to wintry mix late this evening then all
snow through Thursday. Snow heaviest Thursday late morning
through mid afternoon.

* Temperatures... in the lower 30s... dropping into the lower 20s.

* Winds... north 10 to 15 mph with gusts up to 20 mph.

* Impacts... roads will be snow covered... making travel dangerous.

Precautionary/preparedness actions...

A Winter Storm Warning for heavy snow means severe winter weather
conditions are expected or occurring. Significant amounts of snow
are forecast that will make travel dangerous. Only travel in an
emergency. If you must travel... keep an extra flashlight...
food... and water in your vehicle in case of an emergency.